Time;durP1;ratioP1;P1;durP2;ratioP2;P2;SDS_P1;SDS_P2;PMS_P1;PMS_P2;Temp;Humidity;BMP_temperature;BMP_pressure;BME280_temperature;BME280_humidity;BME280_pressure;Samples;Min_cycle;Max_cycle;Signal;HPM_P1;HPM_P2
2022/04/03 00:00:46;;;;;;;;;;;;;;;18.64;43.35;99893.16;2107204;28;20379;-61
2022/04/03 00:01:46;;;;;;;;;;;;;;;18.62;43.43;99886.13;2102122;28;20386;-58
2022/04/03 00:02:47;;;;;;;;;;;;;;;18.62;43.55;99889.72;2107421;28;19939;-60
2022/04/03 00:03:47;;;;;;;;;;;;;;;18.61;43.45;99884.38;2094092;28;19923;-63
2022/04/03 00:04:48;;;;;;;;;;;;;;;18.61;43.43;99887.13;2089538;28;19916;-63
2022/04/03 00:05:48;;;;;;;;;;;;;;;18.59;43.51;99884.56;2089341;28;20280;-64
2022/04/03 00:06:48;;;;;;;;;;;;;;;18.59;43.46;99886.41;2088179;28;20443;-64
2022/04/03 00:07:48;;;;;;;;;;;;;;;18.58;43.50;99876.50;2088696;28;19920;-64
2022/04/03 00:08:49;;;;;;;;;;;;;;;18.57;43.69;99878.38;2090014;28;20420;-63
2022/04/03 00:09:49;;;;;;;;;;;;;;;18.56;43.60;99878.53;2091079;28;19975;-63
2022/04/03 00:10:49;;;;;;;;;;;;;;;18.55;43.63;99880.41;2089584;28;19912;-64
2022/04/03 00:11:50;;;;;;;;;;;;;;;18.55;43.74;99879.53;2090211;28;20086;-64
2022/04/03 00:12:50;;;;;;;;;;;;;;;18.54;43.77;99881.41;2091198;28;19955;-62
2022/04/03 00:13:51;;;;;;;;;;;;;;;18.53;43.89;99881.56;2090786;28;19994;-63
2022/04/03 00:14:51;;;;;;;;;;;;;;;18.53;43.73;99876.09;2090677;28;19920;-64
2022/04/03 00:15:51;;;;;;;;;;;;;;;18.53;43.89;99878.84;2086409;28;19963;-63
2022/04/03 00:16:52;;;;;;;;;;;;;;;18.53;43.72;99876.09;2091795;28;19920;-64
2022/04/03 00:17:52;;;;;;;;;;;;;;;18.52;43.74;99877.09;2090985;28;19915;-64
2022/04/03 00:18:53;;;;;;;;;;;;;;;18.51;43.75;99878.13;2090686;28;19920;-65
2022/04/03 00:19:53;;;;;;;;;;;;;;;18.50;43.72;99876.41;2079991;28;19999;-64
2022/04/03 00:20:53;;;;;;;;;;;;;;;18.51;43.79;99878.13;2075934;28;20062;-64
2022/04/03 00:21:54;;;;;;;;;;;;;;;18.51;43.83;99875.41;2084158;28;19920;-62
2022/04/03 00:22:54;;;;;;;;;;;;;;;18.49;43.89;99875.53;2079056;28;19963;-63
2022/04/03 00:23:55;;;;;;;;;;;;;;;18.50;44.00;99881.88;2081188;28;20362;-62
2022/04/03 00:24:55;;;;;;;;;;;;;;;18.49;43.72;99874.69;2090238;28;19931;-64
2022/04/03 00:25:56;;;;;;;;;;;;;;;18.47;43.83;99872.13;2088075;28;19949;-64
2022/04/03 00:26:56;;;;;;;;;;;;;;;18.48;43.77;99875.72;2090749;28;19981;-62
2022/04/03 00:27:56;;;;;;;;;;;;;;;18.47;43.85;99876.69;2088815;28;20851;-63
2022/04/03 00:28:57;;;;;;;;;;;;;;;18.45;43.75;99874.13;2089581;28;19924;-64
2022/04/03 00:29:57;;;;;;;;;;;;;;;18.45;43.86;99875.97;2088057;28;20419;-64
2022/04/03 00:30:58;;;;;;;;;;;;;;;18.43;43.87;99874.28;2089027;28;19977;-64
2022/04/03 00:31:58;;;;;;;;;;;;;;;18.45;43.90;99881.44;2089151;28;19924;-64
2022/04/03 00:32:59;;;;;;;;;;;;;;;18.41;43.96;99879.03;2078919;28;20038;-64
2022/04/03 00:33:59;;;;;;;;;;;;;;;18.42;43.85;99875.31;2080107;28;20397;-63
2022/04/03 00:34:59;;;;;;;;;;;;;;;18.41;44.01;99879.03;2088107;28;20289;-64
2022/04/03 00:35:59;;;;;;;;;;;;;;;18.41;44.16;99868.09;2091823;28;19924;-64
2022/04/03 00:37:00;;;;;;;;;;;;;;;18.40;44.02;99876.47;2087883;28;19976;-63
2022/04/03 00:38:00;;;;;;;;;;;;;;;18.39;44.18;99875.56;2086903;28;19983;-64
2022/04/03 00:39:01;;;;;;;;;;;;;;;18.39;44.05;99875.56;2089328;28;19923;-64
2022/04/03 00:40:02;;;;;;;;;;;;;;;18.37;44.11;99872.16;2091614;28;19935;-64
2022/04/03 00:41:03;;;;;;;;;;;;;;;18.38;44.17;99862.09;2080115;28;19933;-64
2022/04/03 00:42:07;;;;;;;;;;;;;;;18.36;44.12;99870.44;2081158;28;19921;-64
2022/04/03 00:43:08;;;;;;;;;;;;;;;18.36;44.12;99873.16;2088925;28;19935;-63
2022/04/03 00:44:09;;;;;;;;;;;;;;;18.35;44.06;99868.72;2093765;28;20035;-63
2022/04/03 00:45:10;;;;;;;;;;;;;;;18.35;44.04;99867.88;2088375;28;19935;-63
2022/04/03 00:46:11;;;;;;;;;;;;;;;18.35;44.17;99873.34;2084621;28;19920;-63
2022/04/03 00:47:12;;;;;;;;;;;;;;;18.34;44.07;99867.00;2088232;28;19924;-65
2022/04/03 00:48:13;;;;;;;;;;;;;;;18.34;44.13;99872.44;2089295;28;19920;-64
2022/04/03 00:49:13;;;;;;;;;;;;;;;18.33;44.20;99868.00;2090031;28;19912;-64
2022/04/03 00:50:14;;;;;;;;;;;;;;;18.34;44.28;99871.59;2090668;28;20390;-64
2022/04/03 00:51:15;;;;;;;;;;;;;;;18.35;44.32;99874.19;2081642;28;20029;-64
2022/04/03 00:52:16;;;;;;;;;;;;;;;18.33;44.28;99869.88;2075056;28;19983;-64
2022/04/03 00:53:17;;;;;;;;;;;;;;;18.32;44.28;99869.00;2080941;28;19928;-64
2022/04/03 00:54:17;;;;;;;;;;;;;;;18.34;44.08;99872.44;2092170;28;19920;-63
2022/04/03 00:55:18;;;;;;;;;;;;;;;18.33;44.18;99870.75;2085268;28;20303;-64
2022/04/03 00:56:18;;;;;;;;;;;;;;;18.34;44.00;99877.91;2090626;28;19968;-64
2022/04/03 00:57:20;;;;;;;;;;;;;;;18.35;44.07;99874.19;2089937;28;19917;-64
2022/04/03 00:58:21;;;;;;;;;;;;;;;18.35;44.23;99874.19;2090341;28;19943;-64
2022/04/03 00:59:22;;;;;;;;;;;;;;;18.36;44.10;99881.34;2092083;28;20510;-64
2022/04/03 01:00:23;;;;;;;;;;;;;;;18.37;44.05;99876.75;2089109;28;20459;-63
2022/04/03 01:01:23;;;;;;;;;;;;;;;18.37;44.17;99885.81;2087379;28;20291;-64
2022/04/03 01:02:24;;;;;;;;;;;;;;;18.36;44.13;99878.63;2091401;28;19988;-64
2022/04/03 01:03:24;;;;;;;;;;;;;;;18.36;44.09;99886.81;2088166;28;19931;-64
2022/04/03 01:04:24;;;;;;;;;;;;;;;18.37;44.02;99880.34;2092201;28;20010;-65
2022/04/03 01:05:24;;;;;;;;;;;;;;;18.36;43.98;99881.34;2089000;28;19923;-63
2022/04/03 01:06:25;;;;;;;;;;;;;;;18.36;44.16;99870.44;2091212;28;19923;-63
2022/04/03 01:07:25;;;;;;;;;;;;;;;18.36;44.16;99881.34;2086707;28;19920;-64
2022/04/03 01:08:26;;;;;;;;;;;;;;;18.36;43.98;99870.44;2087080;28;20286;-64
2022/04/03 01:09:27;;;;;;;;;;;;;;;18.35;44.04;99868.72;2086817;28;19921;-64
2022/04/03 01:10:27;;;;;;;;;;;;;;;18.36;44.10;99873.16;2084600;28;19974;-64
2022/04/03 01:11:28;;;;;;;;;;;;;;;18.37;44.06;99874.00;2087813;28;20367;-64
2022/04/03 01:12:28;;;;;;;;;;;;;;;18.36;44.22;99875.88;2090739;28;19920;-63
2022/04/03 01:13:29;;;;;;;;;;;;;;;18.36;44.18;99875.88;2091069;28;19977;-64
2022/04/03 01:14:36;;;;;;;;;;;;;;;18.34;44.17;99869.72;2092088;28;19927;-64
2022/04/03 01:15:36;;;;;;;;;;;;;;;18.35;44.14;99874.19;2092135;28;20419;-63
2022/04/03 01:16:37;;;;;;;;;;;;;;;18.33;43.94;99870.75;2090263;28;20481;-63
2022/04/03 01:17:37;;;;;;;;;;;;;;;18.34;44.18;99877.06;2090205;28;20745;-64
2022/04/03 01:18:37;;;;;;;;;;;;;;;18.34;44.08;99875.19;2086577;28;19930;-64
2022/04/03 01:19:38;;;;;;;;;;;;;;;18.35;44.04;99878.78;2084724;28;20015;-63
2022/04/03 01:20:38;;;;;;;;;;;;;;;18.33;44.00;99870.75;2094140;28;19924;-63
2022/04/03 01:21:38;;;;;;;;;;;;;;;18.34;44.15;99869.72;2080925;28;20466;-64
2022/04/03 01:22:39;;;;;;;;;;;;;;;18.34;44.09;99869.72;2079023;28;19912;-63
2022/04/03 01:23:40;;;;;;;;;;;;;;;18.33;44.19;99870.75;2090806;28;19919;-62
2022/04/03 01:24:43;;;;;;;;;;;;;;;18.33;44.10;99864.44;2088933;28;19913;-63
2022/04/03 01:25:44;;;;;;;;;;;;;;;18.32;44.15;99869.00;2086651;28;19909;-65
2022/04/03 01:26:45;;;;;;;;;;;;;;;18.32;44.13;99869.00;2089369;28;20271;-63
2022/04/03 01:27:45;;;;;;;;;;;;;;;18.32;44.17;99873.59;2088254;28;20506;-64
2022/04/03 01:28:46;;;;;;;;;;;;;;;18.31;44.11;99861.84;2090749;28;19920;-63
2022/04/03 01:29:48;;;;;;;;;;;;;;;18.30;43.95;99865.59;2090239;28;19920;-64
2022/04/03 01:30:48;;;;;;;;;;;;;;;18.30;44.12;99860.13;2087869;28;20420;-64
2022/04/03 01:31:48;;;;;;;;;;;;;;;18.28;44.19;99862.16;2090079;28;20434;-65
2022/04/03 01:32:48;;;;;;;;;;;;;;;18.27;44.16;99865.88;2090968;28;20077;-63
2022/04/03 01:33:49;;;;;;;;;;;;;;;18.27;44.13;99859.56;2087373;28;19932;-63
2022/04/03 01:34:49;;;;;;;;;;;;;;;18.26;44.24;99861.44;2080037;28;20950;-64
2022/04/03 01:35:50;;;;;;;;;;;;;;;18.25;44.14;99867.91;2081064;28;20026;-64
2022/04/03 01:36:50;;;;;;;;;;;;;;;18.25;44.17;99857.00;2088682;28;19931;-64
2022/04/03 01:37:50;;;;;;;;;;;;;;;18.25;44.21;99858.84;2087216;28;20321;-64
2022/04/03 01:38:51;;;;;;;;;;;;;;;18.23;44.18;99850.81;2082442;28;20335;-62
2022/04/03 01:39:51;;;;;;;;;;;;;;;18.23;44.17;99853.56;2084412;28;19955;-64
2022/04/03 01:40:51;;;;;;;;;;;;;;;18.21;44.34;99850.97;2091184;28;19920;-63
2022/04/03 01:41:52;;;;;;;;;;;;;;;18.22;44.24;99857.28;2085555;28;19957;-64
2022/04/03 01:42:52;;;;;;;;;;;;;;;18.21;44.37;99855.56;2080883;28;20308;-64
2022/04/03 01:43:52;;;;;;;;;;;;;;;18.21;44.49;99855.56;2080974;28;20582;-63
2022/04/03 01:44:53;;;;;;;;;;;;;;;18.21;44.19;99858.28;2088243;28;20007;-63
2022/04/03 01:45:53;;;;;;;;;;;;;;;18.20;44.38;99854.72;2089594;28;19919;-64
2022/04/03 01:46:53;;;;;;;;;;;;;;;18.20;44.17;99851.09;2090418;28;19927;-63
2022/04/03 01:47:53;;;;;;;;;;;;;;;18.19;44.50;99846.66;2093889;28;19920;-62
2022/04/03 01:48:54;;;;;;;;;;;;;;;18.20;44.24;99852.00;2090415;28;19927;-64
2022/04/03 01:49:54;;;;;;;;;;;;;;;18.19;44.36;99849.41;2086106;28;19920;-64
2022/04/03 01:50:55;;;;;;;;;;;;;;;18.18;44.51;99850.41;2089782;28;19985;-64
2022/04/03 01:51:58;;;;;;;;;;;;;;;18.17;44.25;99848.69;2081747;28;20163;-64
2022/04/03 01:52:58;;;;;;;;;;;;;;;18.19;44.47;99843.94;2083321;28;20426;-64
2022/04/03 01:53:59;;;;;;;;;;;;;;;18.17;44.36;99843.22;2079736;28;20154;-64
2022/04/03 01:54:59;;;;;;;;;;;;;;;18.16;44.60;99844.25;2080832;28;20028;-64
2022/04/03 01:56:00;;;;;;;;;;;;;;;18.15;44.52;99837.06;2090755;28;19920;-63
2022/04/03 01:57:01;;;;;;;;;;;;;;;18.16;44.41;99841.53;2090360;28;19920;-64
2022/04/03 01:58:06;;;;;;;;;;;;;;;18.15;44.53;99834.34;2087328;28;20208;-64
2022/04/03 01:59:07;;;;;;;;;;;;;;;18.15;44.41;99831.59;2079318;28;19959;-63
2022/04/03 02:00:09;;;;;;;;;;;;;;;18.14;44.62;99832.63;2079440;28;20610;-63
2022/04/03 02:01:10;;;;;;;;;;;;;;;18.15;44.52;99839.78;2086761;28;19924;-63
2022/04/03 02:02:11;;;;;;;;;;;;;;;18.13;44.55;99830.91;2089708;28;19920;-63
2022/04/03 02:03:12;;;;;;;;;;;;;;;18.12;44.51;99835.50;2087818;28;20057;-63
2022/04/03 02:04:12;;;;;;;;;;;;;;;18.11;44.52;99833.78;2089858;28;19928;-63
2022/04/03 02:05:13;;;;;;;;;;;;;;;18.12;44.44;99831.91;2088162;28;20850;-63
2022/04/03 02:06:13;;;;;;;;;;;;;;;18.12;44.56;99838.22;2087556;28;20071;-63
2022/04/03 02:07:14;;;;;;;;;;;;;;;18.12;44.57;99837.38;2089644;28;20615;-63
2022/04/03 02:08:15;;;;;;;;;;;;;;;18.12;44.65;99837.38;2087156;28;20417;-64
2022/04/03 02:09:15;;;;;;;;;;;;;;;18.12;44.64;99837.38;2087990;28;19920;-63
2022/04/03 02:10:16;;;;;;;;;;;;;;;18.12;44.60;99831.91;2080986;28;19928;-63
2022/04/03 02:11:16;;;;;;;;;;;;;;;18.12;44.59;99834.63;2081359;28;19920;-64
2022/04/03 02:12:16;;;;;;;;;;;;;;;18.12;44.63;99835.50;2088665;28;19920;-64
2022/04/03 02:13:17;;;;;;;;;;;;;;;18.12;44.52;99829.19;2082347;28;19954;-64
2022/04/03 02:14:24;;;;;;;;;;;;;;;18.13;44.62;99836.38;2082852;28;20016;-64
2022/04/03 02:15:24;;;;;;;;;;;;;;;18.12;44.35;99834.63;2086828;28;20310;-64
2022/04/03 02:16:25;;;;;;;;;;;;;;;18.13;44.45;99833.66;2089839;28;19908;-63
2022/04/03 02:17:26;;;;;;;;;;;;;;;18.13;44.54;99828.19;2089512;28;19955;-63
2022/04/03 02:18:26;;;;;;;;;;;;;;;18.13;44.59;99829.03;2086884;28;19912;-63
2022/04/03 02:19:26;;;;;;;;;;;;;;;18.13;44.56;99831.78;2088391;28;20333;-63
2022/04/03 02:20:27;;;;;;;;;;;;;;;18.15;44.41;99834.34;2090265;28;19924;-64
2022/04/03 02:21:27;;;;;;;;;;;;;;;18.14;44.48;99828.03;2088946;28;20057;-63
2022/04/03 02:22:27;;;;;;;;;;;;;;;18.15;44.27;99828.88;2090681;28;20327;-64
2022/04/03 02:23:28;;;;;;;;;;;;;;;18.16;44.42;99830.59;2088229;28;20170;-64
2022/04/03 02:24:28;;;;;;;;;;;;;;;18.15;44.44;99823.41;2089119;28;19920;-63
2022/04/03 02:25:29;;;;;;;;;;;;;;;18.15;44.29;99834.34;2084847;28;20209;-64
2022/04/03 02:26:29;;;;;;;;;;;;;;;18.14;44.25;99838.09;2089409;28;19977;-63
2022/04/03 02:27:30;;;;;;;;;;;;;;;18.15;44.47;99823.41;2085570;28;19920;-63
2022/04/03 02:28:31;;;;;;;;;;;;;;;18.14;44.39;99825.28;2089408;28;20543;-64
2022/04/03 02:29:31;;;;;;;;;;;;;;;18.13;44.42;99830.91;2088284;28;20796;-64
2022/04/03 02:30:31;;;;;;;;;;;;;;;18.13;44.39;99823.59;2088880;28;19947;-64
2022/04/03 02:31:32;;;;;;;;;;;;;;;18.13;44.48;99825.47;2089431;28;19920;-64
2022/04/03 02:32:32;;;;;;;;;;;;;;;18.12;44.58;99826.44;2089269;28;20310;-63
2022/04/03 02:33:33;;;;;;;;;;;;;;;18.11;44.61;99832.94;2084190;28;19920;-63
2022/04/03 02:34:33;;;;;;;;;;;;;;;18.10;44.26;99821.13;2088635;28;20004;-63
2022/04/03 02:35:33;;;;;;;;;;;;;;;18.10;44.31;99821.13;2089976;28;19912;-64
2022/04/03 02:36:34;;;;;;;;;;;;;;;18.10;44.58;99834.78;2081648;28;19920;-63
2022/04/03 02:37:35;;;;;;;;;;;;;;;18.09;44.61;99818.56;2079140;28;19979;-64
2022/04/03 02:38:36;;;;;;;;;;;;;;;18.08;44.63;99827.75;2091385;28;19920;-63
2022/04/03 02:39:37;;;;;;;;;;;;;;;18.09;44.53;99824.03;2078956;28;19966;-63
2022/04/03 02:40:38;;;;;;;;;;;;;;;18.09;44.67;99813.13;2080895;28;19932;-63
2022/04/03 02:41:38;;;;;;;;;;;;;;;18.08;44.71;99825.03;2088522;28;19956;-63
2022/04/03 02:42:39;;;;;;;;;;;;;;;18.08;44.55;99822.28;2090331;28;19916;-63
2022/04/03 02:43:39;;;;;;;;;;;;;;;18.07;44.46;99820.59;2083859;28;20335;-64
2022/04/03 02:44:40;;;;;;;;;;;;;;;18.06;44.67;99818.88;2082344;28;19959;-63
2022/04/03 02:45:40;;;;;;;;;;;;;;;18.06;44.53;99829.81;2071791;28;20039;-64
2022/04/03 02:46:41;;;;;;;;;;;;;;;18.05;44.48;99823.47;2082985;28;20794;-63
2022/04/03 02:47:47;;;;;;;;;;;;;;;18.06;44.45;99824.34;2090496;28;19912;-63
2022/04/03 02:48:47;;;;;;;;;;;;;;;18.06;44.65;99829.81;2083666;28;20397;-63
2022/04/03 02:49:50;;;;;;;;;;;;;;;18.04;44.58;99820.91;2091174;28;19920;-64
2022/04/03 02:50:50;;;;;;;;;;;;;;;18.04;44.53;99816.28;2087211;28;20500;-64
2022/04/03 02:51:51;;;;;;;;;;;;;;;18.04;44.75;99826.34;2091068;28;20630;-63
2022/04/03 02:52:51;;;;;;;;;;;;;;;18.04;44.79;99826.34;2094665;28;20306;-63
2022/04/03 02:53:52;;;;;;;;;;;;;;;18.03;44.64;99824.63;2089342;28;19920;-64
2022/04/03 02:54:52;;;;;;;;;;;;;;;18.02;44.78;99825.63;2089786;28;19920;-64
2022/04/03 02:55:52;;;;;;;;;;;;;;;18.02;44.90;99826.50;2093481;28;19920;-64
2022/04/03 02:56:53;;;;;;;;;;;;;;;18.02;44.59;99828.38;2085786;28;19912;-64
2022/04/03 02:57:53;;;;;;;;;;;;;;;18.03;44.79;99819.16;2090680;28;19958;-64
2022/04/03 02:58:55;;;;;;;;;;;;;;;18.01;44.54;99816.59;2083441;28;19917;-64
2022/04/03 02:59:56;;;;;;;;;;;;;;;18.00;44.58;99821.19;2082360;28;20019;-64
2022/04/03 03:00:56;;;;;;;;;;;;;;;18.00;44.67;99825.78;2092163;28;19924;-63
2022/04/03 03:01:56;;;;;;;;;;;;;;;17.99;44.69;99824.06;2081754;28;19954;-64
2022/04/03 03:02:57;;;;;;;;;;;;;;;17.98;44.74;99825.94;2073789;28;19975;-65
2022/04/03 03:03:57;;;;;;;;;;;;;;;17.96;44.64;99822.50;2083587;28;19931;-63
2022/04/03 03:04:57;;;;;;;;;;;;;;;17.96;44.86;99814.31;2091497;28;20248;-64
2022/04/03 03:05:58;;;;;;;;;;;;;;;17.95;44.83;99812.59;2088551;28;20825;-64
2022/04/03 03:06:58;;;;;;;;;;;;;;;17.96;44.85;99808.88;2087492;28;19924;-63
2022/04/03 03:07:58;;;;;;;;;;;;;;;17.94;44.92;99816.34;2091150;28;20611;-64
2022/04/03 03:08:59;;;;;;;;;;;;;;;17.94;44.82;99812.75;2089496;28;19963;-64
2022/04/03 03:10:00;;;;;;;;;;;;;;;17.94;44.98;99805.44;2091019;28;20134;-64
2022/04/03 03:11:00;;;;;;;;;;;;;;;17.94;44.81;99810.88;2091093;28;19927;-63
2022/04/03 03:12:00;;;;;;;;;;;;;;;17.94;45.04;99819.06;2088536;28;20383;-64
2022/04/03 03:13:02;;;;;;;;;;;;;;;17.94;44.94;99810.88;2090243;28;19919;-64
2022/04/03 03:14:02;;;;;;;;;;;;;;;17.94;44.83;99816.34;2090573;28;19912;-64
2022/04/03 03:15:04;;;;;;;;;;;;;;;17.94;44.94;99810.88;2090169;28;19920;-63
2022/04/03 03:16:04;;;;;;;;;;;;;;;17.94;44.98;99810.88;2090962;28;19920;-64
2022/04/03 03:17:05;;;;;;;;;;;;;;;17.95;44.86;99818.03;2095746;28;19951;-64
2022/04/03 03:18:05;;;;;;;;;;;;;;;17.95;44.63;99818.03;2090341;28;19920;-64
2022/04/03 03:19:05;;;;;;;;;;;;;;;17.95;44.72;99812.59;2087861;28;20287;-64
2022/04/03 03:20:06;;;;;;;;;;;;;;;17.95;44.68;99819.91;2089067;28;19931;-64
2022/04/03 03:21:07;;;;;;;;;;;;;;;17.96;44.82;99814.31;2089112;28;19927;-64
2022/04/03 03:22:07;;;;;;;;;;;;;;;17.96;44.54;99814.31;2090965;28;19923;-63
2022/04/03 03:23:08;;;;;;;;;;;;;;;17.96;44.72;99814.31;2087541;28;19958;-64
2022/04/03 03:24:09;;;;;;;;;;;;;;;17.96;44.81;99813.47;2090336;28;20417;-63
2022/04/03 03:25:11;;;;;;;;;;;;;;;17.96;44.46;99819.78;2081512;28;19951;-63
2022/04/03 03:26:11;;;;;;;;;;;;;;;17.97;44.48;99820.63;2076365;28;19923;-63
2022/04/03 03:27:12;;;;;;;;;;;;;;;17.97;44.69;99818.75;2091125;28;19927;-64
2022/04/03 03:28:12;;;;;;;;;;;;;;;17.98;44.48;99823.22;2089228;28;19919;-64
2022/04/03 03:29:13;;;;;;;;;;;;;;;17.97;44.58;99821.47;2091164;28;19954;-63
2022/04/03 03:30:13;;;;;;;;;;;;;;;17.98;44.41;99815.03;2091583;28;20060;-63
2022/04/03 03:31:14;;;;;;;;;;;;;;;17.97;44.57;99821.47;2091598;28;19924;-64
2022/04/03 03:32:14;;;;;;;;;;;;;;;17.97;44.50;99826.09;2087727;28;19916;-63
2022/04/03 03:33:14;;;;;;;;;;;;;;;17.96;44.48;99821.66;2092057;28;20688;-62
2022/04/03 03:34:15;;;;;;;;;;;;;;;17.95;44.68;99823.50;2079904;28;20567;-63
2022/04/03 03:35:15;;;;;;;;;;;;;;;17.95;44.63;99818.03;2081580;28;19927;-63
2022/04/03 03:36:16;;;;;;;;;;;;;;;17.94;44.82;99815.47;2091055;28;19923;-64
2022/04/03 03:37:16;;;;;;;;;;;;;;;17.94;44.51;99819.06;2082894;28;19920;-64
2022/04/03 03:38:17;;;;;;;;;;;;;;;17.93;44.68;99825.53;2081353;28;20654;-63
2022/04/03 03:39:17;;;;;;;;;;;;;;;17.93;44.74;99813.75;2092545;28;20394;-63
2022/04/03 03:40:18;;;;;;;;;;;;;;;17.92;44.65;99821.06;2079281;28;20245;-64
2022/04/03 03:41:18;;;;;;;;;;;;;;;17.91;44.47;99819.38;2084631;28;19921;-64
2022/04/03 03:42:18;;;;;;;;;;;;;;;17.91;44.63;99816.63;2086459;28;19945;-64
2022/04/03 03:43:19;;;;;;;;;;;;;;;17.91;44.70;99815.78;2091768;28;19993;-64
2022/04/03 03:44:19;;;;;;;;;;;;;;;17.90;44.58;99817.63;2085170;28;19980;-64
2022/04/03 03:45:19;;;;;;;;;;;;;;;17.90;44.65;99812.19;2091313;28;20007;-63
2022/04/03 03:46:20;;;;;;;;;;;;;;;17.90;44.73;99816.78;2090975;28;19920;-64
2022/04/03 03:47:20;;;;;;;;;;;;;;;17.89;44.73;99812.34;2091233;28;19920;-64
2022/04/03 03:48:20;;;;;;;;;;;;;;;17.89;44.88;99815.94;2090262;28;19928;-64
2022/04/03 03:49:21;;;;;;;;;;;;;;;17.89;44.74;99815.06;2091840;28;19928;-64
2022/04/03 03:50:21;;;;;;;;;;;;;;;17.89;44.65;99817.78;2088427;28;19921;-64
2022/04/03 03:51:21;;;;;;;;;;;;;;;17.88;44.69;99816.91;2086444;28;19928;-64
2022/04/03 03:52:21;;;;;;;;;;;;;;;17.88;44.58;99825.09;2089382;28;19916;-64
2022/04/03 03:53:22;;;;;;;;;;;;;;;17.88;44.66;99813.34;2090979;28;19915;-64
2022/04/03 03:54:22;;;;;;;;;;;;;;;17.88;44.77;99814.19;2084918;28;19920;-64
2022/04/03 03:55:23;;;;;;;;;;;;;;;17.88;44.69;99822.38;2081497;28;19954;-64
2022/04/03 03:56:24;;;;;;;;;;;;;;;17.88;44.64;99821.50;2083478;28;19920;-63
2022/04/03 03:57:24;;;;;;;;;;;;;;;17.88;44.84;99821.50;2089593;28;19913;-63
2022/04/03 03:58:25;;;;;;;;;;;;;;;17.87;44.89;99820.66;2091320;28;19916;-63
2022/04/03 03:59:25;;;;;;;;;;;;;;;17.87;44.75;99825.25;2106749;28;20379;-60
2022/04/03 04:00:26;;;;;;;;;;;;;;;17.85;44.69;99817.22;2107731;28;19931;-59
2022/04/03 04:01:27;;;;;;;;;;;;;;;17.86;45.01;99827.13;2107838;28;19913;-61
2022/04/03 04:02:27;;;;;;;;;;;;;;;17.86;44.83;99818.97;2107953;28;19973;-60
2022/04/03 04:03:27;;;;;;;;;;;;;;;17.85;44.82;99817.22;2107820;28;19958;-61
2022/04/03 04:04:29;;;;;;;;;;;;;;;17.85;44.83;99816.38;2101168;28;19917;-60
2022/04/03 04:05:29;;;;;;;;;;;;;;;17.84;44.94;99815.50;2098614;28;19980;-58
2022/04/03 04:06:30;;;;;;;;;;;;;;;17.83;44.96;99819.22;2099460;28;19912;-61
2022/04/03 04:07:37;;;;;;;;;;;;;;;17.83;45.14;99829.28;2104442;28;19912;-61
2022/04/03 04:08:37;;;;;;;;;;;;;;;17.82;44.84;99822.97;2107910;28;19916;-62
2022/04/03 04:09:39;;;;;;;;;;;;;;;17.81;45.14;99826.72;2100669;28;19916;-61
2022/04/03 04:10:39;;;;;;;;;;;;;;;17.81;44.92;99826.72;2100431;28;19912;-61
2022/04/03 04:11:39;;;;;;;;;;;;;;;17.81;44.90;99826.72;2107803;28;20006;-59
2022/04/03 04:12:43;;;;;;;;;;;;;;;17.80;45.11;99825.00;2103499;28;19986;-60
2022/04/03 04:13:43;;;;;;;;;;;;;;;17.80;44.92;99827.72;2099270;28;20007;-60
2022/04/03 04:14:44;;;;;;;;;;;;;;;17.81;44.98;99832.19;2107701;28;19916;-60
2022/04/03 04:15:44;;;;;;;;;;;;;;;17.81;45.08;99829.44;2107870;28;20302;-61
2022/04/03 04:16:46;;;;;;;;;;;;;;;17.80;44.92;99830.44;2107677;28;19916;-60
2022/04/03 04:17:47;;;;;;;;;;;;;;;17.80;44.91;99830.44;2107771;28;19912;-59
2022/04/03 04:18:47;;;;;;;;;;;;;;;17.80;44.88;99827.72;2107898;28;19912;-61
2022/04/03 04:19:48;;;;;;;;;;;;;;;17.81;44.82;99831.28;2107706;28;20398;-59
2022/04/03 04:20:50;;;;;;;;;;;;;;;17.81;44.88;99825.84;2107593;28;19924;-61
2022/04/03 04:21:51;;;;;;;;;;;;;;;17.81;44.88;99834.91;2100513;28;19920;-59
2022/04/03 04:22:54;;;;;;;;;;;;;;;17.82;44.87;99842.06;2107210;28;19955;-60
2022/04/03 04:23:54;;;;;;;;;;;;;;;17.81;44.75;99837.63;2107779;28;19912;-60
2022/04/03 04:24:54;;;;;;;;;;;;;;;17.82;44.72;99838.47;2107500;28;19950;-61
2022/04/03 04:25:54;;;;;;;;;;;;;;;17.82;44.76;99831.16;2107769;28;19916;-59
2022/04/03 04:26:55;;;;;;;;;;;;;;;17.82;44.93;99833.88;2096174;28;19959;-61
2022/04/03 04:27:56;;;;;;;;;;;;;;;17.83;44.63;99829.28;2090512;28;19912;-61
2022/04/03 04:28:56;;;;;;;;;;;;;;;17.82;44.88;99833.88;2099306;28;19955;-60
2022/04/03 04:29:57;;;;;;;;;;;;;;;17.83;44.60;99835.59;2106575;28;19912;-60
2022/04/03 04:30:57;;;;;;;;;;;;;;;17.82;44.61;99825.69;2107670;28;19918;-60
2022/04/03 04:31:58;;;;;;;;;;;;;;;17.82;44.64;99820.25;2107743;28;19912;-60
2022/04/03 04:32:59;;;;;;;;;;;;;;;17.82;44.69;99833.88;2107473;28;19912;-60
2022/04/03 04:33:59;;;;;;;;;;;;;;;17.82;44.75;99828.44;2098355;28;20375;-59
2022/04/03 04:34:59;;;;;;;;;;;;;;;17.81;44.64;99821.28;2098445;28;20351;-60
2022/04/03 04:36:00;;;;;;;;;;;;;;;17.81;44.66;99828.56;2098701;28;20317;-61
2022/04/03 04:37:00;;;;;;;;;;;;;;;17.81;44.74;99824.00;2107597;28;19912;-60
2022/04/03 04:38:01;;;;;;;;;;;;;;;17.81;44.67;99831.28;2105497;28;19912;-60
2022/04/03 04:39:01;;;;;;;;;;;;;;;17.80;44.63;99825.00;2100039;28;20367;-60
2022/04/03 04:40:02;;;;;;;;;;;;;;;17.79;44.75;99834.16;2107376;28;19912;-61
2022/04/03 04:41:03;;;;;;;;;;;;;;;17.78;44.95;99833.31;2106832;28;19918;-59
2022/04/03 04:42:03;;;;;;;;;;;;;;;17.78;44.62;99833.31;2107724;28;19983;-59
2022/04/03 04:43:04;;;;;;;;;;;;;;;17.78;44.92;99833.31;2091458;28;19971;-59
2022/04/03 04:44:04;;;;;;;;;;;;;;;17.79;44.64;99842.34;2097500;28;19958;-60
2022/04/03 04:45:06;;;;;;;;;;;;;;;17.78;44.69;99832.41;2107465;28;19924;-60
2022/04/03 04:46:07;;;;;;;;;;;;;;;17.77;44.86;99830.72;2106981;28;20009;-60
2022/04/03 04:47:07;;;;;;;;;;;;;;;17.77;45.01;99833.44;2103696;28;20469;-60
2022/04/03 04:48:07;;;;;;;;;;;;;;;17.77;44.72;99836.16;2101465;28;19919;-61
2022/04/03 04:49:08;;;;;;;;;;;;;;;17.76;44.83;99834.44;2107511;28;20362;-60
2022/04/03 04:50:09;;;;;;;;;;;;;;;17.76;44.79;99831.69;2107482;28;19912;-60
2022/04/03 04:51:09;;;;;;;;;;;;;;;17.77;44.90;99833.44;2107580;28;20370;-60
2022/04/03 04:52:09;;;;;;;;;;;;;;;17.76;44.82;99838.03;2098491;28;20309;-60
2022/04/03 04:53:10;;;;;;;;;;;;;;;17.77;44.79;99836.16;2098717;28;20333;-60
2022/04/03 04:54:10;;;;;;;;;;;;;;;17.75;44.66;99839.03;2107396;28;19934;-60
2022/04/03 04:55:11;;;;;;;;;;;;;;;17.77;44.83;99836.16;2107375;28;19970;-60
2022/04/03 04:56:12;;;;;;;;;;;;;;;17.76;44.87;99842.59;2107505;28;20008;-60
2022/04/03 04:57:12;;;;;;;;;;;;;;;17.76;44.86;99835.31;2099130;28;19951;-59
2022/04/03 04:58:13;;;;;;;;;;;;;;;17.77;44.90;99844.34;2101680;28;20010;-60
2022/04/03 04:59:13;;;;;;;;;;;;;;;17.77;44.83;99841.63;2107454;28;19958;-60
2022/04/03 05:00:14;;;;;;;;;;;;;;;17.77;44.98;99841.63;2107265;28;20389;-60
2022/04/03 05:01:15;;;;;;;;;;;;;;;17.76;44.67;99840.75;2107449;28;20398;-61
2022/04/03 05:02:16;;;;;;;;;;;;;;;17.76;44.99;99837.16;2107324;28;19912;-61
2022/04/03 05:03:16;;;;;;;;;;;;;;;17.75;44.86;99832.72;2107357;28;19919;-60
2022/04/03 05:04:16;;;;;;;;;;;;;;;17.75;44.95;99838.16;2107405;28;19922;-59
2022/04/03 05:05:20;;;;;;;;;;;;;;;17.75;44.91;99833.56;2107110;28;19913;-60
2022/04/03 05:06:23;;;;;;;;;;;;;;;17.74;44.92;99841.91;2107392;28;19920;-61
2022/04/03 05:07:24;;;;;;;;;;;;;;;17.73;44.85;99829.28;2107221;28;19916;-59
2022/04/03 05:08:24;;;;;;;;;;;;;;;17.73;44.78;99837.47;2107451;28;19999;-60
2022/04/03 05:09:25;;;;;;;;;;;;;;;17.73;44.76;99842.91;2107375;28;19999;-59
2022/04/03 05:10:25;;;;;;;;;;;;;;;17.72;45.10;99838.47;2106133;28;19916;-60
2022/04/03 05:11:26;;;;;;;;;;;;;;;17.71;45.04;99839.47;2107342;28;19954;-61
2022/04/03 05:12:26;;;;;;;;;;;;;;;17.70;44.95;99845.94;2107166;28;20281;-61
2022/04/03 05:13:28;;;;;;;;;;;;;;;17.70;45.20;99843.22;2106042;28;19919;-61
2022/04/03 05:14:28;;;;;;;;;;;;;;;17.69;45.00;99844.22;2098841;28;19934;-61
2022/04/03 05:15:29;;;;;;;;;;;;;;;17.68;44.80;99837.88;2104729;28;19911;-60
2022/04/03 05:16:30;;;;;;;;;;;;;;;17.68;45.14;99840.63;2107250;28;19916;-61